createdAt,value
2018-11-02T00:02:28.478Z,5.60
2018-11-02T00:07:31.573Z,5.37
2018-11-02T00:12:34.846Z,5.73
2018-11-02T00:17:37.869Z,6.30
2018-11-02T00:22:41.022Z,6.33
2018-11-02T00:27:44.235Z,5.37
2018-11-02T00:32:47.342Z,5.70
2018-11-02T00:37:50.500Z,5.43
2018-11-02T00:42:53.684Z,6.13
2018-11-02T00:47:56.912Z,5.93
2018-11-02T00:53:00.078Z,7.07
2018-11-02T00:58:03.224Z,7.57
2018-11-02T01:03:06.808Z,7.83
2018-11-02T01:08:10.061Z,7.07
2018-11-02T01:13:19.885Z,7.13
2018-11-02T01:18:23.130Z,6.90
2018-11-02T01:23:26.269Z,7.40
2018-11-02T01:28:29.769Z,6.63
2018-11-02T01:33:37.685Z,6.67
2018-11-02T01:38:40.847Z,7.40
2018-11-02T01:43:43.986Z,6.97
2018-11-02T01:48:47.141Z,6.57
2018-11-02T01:53:50.239Z,6.03
2018-11-02T01:58:53.443Z,5.63
2018-11-02T02:03:56.535Z,6.23
2018-11-02T02:08:59.645Z,5.83
2018-11-02T02:14:02.785Z,5.03
2018-11-02T02:19:06.409Z,6.60
2018-11-02T02:24:09.621Z,5.80
2018-11-02T02:29:12.712Z,5.77
2018-11-02T02:34:15.835Z,4.90
2018-11-02T02:39:18.998Z,5.90
2018-11-02T02:44:22.118Z,5.60
2018-11-02T02:49:25.199Z,6.73
2018-11-02T02:54:28.297Z,6.30
2018-11-02T02:59:31.429Z,6.03
2018-11-02T03:04:34.546Z,5.97
2018-11-02T03:09:37.659Z,6.50
2018-11-02T03:14:40.754Z,6.23
2018-11-02T03:19:43.855Z,7.13
2018-11-02T03:24:47.078Z,6.17
2018-11-02T03:29:50.195Z,4.87
2018-11-02T03:34:53.360Z,5.30
2018-11-02T03:39:56.544Z,5.03
2018-11-02T03:44:59.642Z,4.50
2018-11-02T03:50:02.835Z,3.97
2018-11-02T03:55:05.989Z,3.30
2018-11-02T04:00:10.007Z,3.20
2018-11-02T04:05:13.121Z,3.10
2018-11-02T04:10:16.667Z,2.90
2018-11-02T04:15:20.206Z,2.30
2018-11-02T04:20:25.121Z,3.10
2018-11-02T04:25:28.868Z,2.63
2018-11-02T04:30:31.973Z,2.77
2018-11-02T04:35:35.063Z,2.43
2018-11-02T04:40:38.149Z,2.50
2018-11-02T04:45:41.259Z,2.93
2018-11-02T04:50:44.377Z,2.50
2018-11-02T04:55:47.497Z,3.10
2018-11-02T05:00:50.599Z,2.50
2018-11-02T05:05:53.697Z,2.37
2018-11-02T05:10:56.805Z,2.73
2018-11-02T05:15:59.881Z,2.53
2018-11-02T05:21:03.021Z,3.10
2018-11-02T05:26:06.487Z,3.60
2018-11-02T05:31:09.709Z,3.73
2018-11-02T05:36:12.800Z,4.07
2018-11-02T05:41:15.889Z,3.70
2018-11-02T05:46:19.056Z,3.50
2018-11-02T05:51:22.150Z,3.37
2018-11-02T05:56:27.470Z,4.10
2018-11-02T06:01:30.591Z,4.17
2018-11-02T06:06:34.794Z,4.80
2018-11-02T06:11:38.120Z,4.93
2018-11-02T06:16:41.311Z,5.40
2018-11-02T06:21:44.619Z,5.77
2018-11-02T06:26:47.745Z,5.57
2018-11-02T06:31:51.886Z,5.97
2018-11-02T06:36:55.268Z,5.00
2018-11-02T06:41:58.528Z,6.27
2018-11-02T06:47:01.811Z,6.30
2018-11-02T06:52:05.094Z,6.00
2018-11-02T06:57:08.918Z,7.70
2018-11-02T07:02:12.106Z,6.97
2018-11-02T07:07:15.463Z,7.40
2018-11-02T07:12:18.675Z,8.17
2018-11-02T07:17:21.798Z,7.73
2018-11-02T07:22:25.028Z,7.73
2018-11-02T07:27:28.453Z,8.00
2018-11-02T07:32:31.562Z,8.10
2018-11-02T07:37:34.771Z,8.40
2018-11-02T07:42:37.898Z,8.40
2018-11-02T07:47:41.154Z,8.27
2018-11-02T07:52:44.186Z,9.27
2018-11-02T07:57:47.298Z,9.00
2018-11-02T08:02:50.412Z,10.20
2018-11-02T08:07:53.569Z,9.60
2018-11-02T08:12:56.696Z,9.17
2018-11-02T08:17:59.905Z,9.10
2018-11-02T08:23:03.049Z,8.00
2018-11-02T08:28:06.223Z,8.10
2018-11-02T08:33:09.525Z,9.03
2018-11-02T08:38:13.049Z,9.20
2018-11-02T08:43:16.136Z,9.90
2018-11-02T08:48:19.234Z,8.10
2018-11-02T08:53:22.356Z,8.90
2018-11-02T08:58:25.594Z,10.00
2018-11-02T09:03:28.584Z,9.90
2018-11-02T09:08:31.754Z,11.13
2018-11-02T09:13:34.941Z,11.23
2018-11-02T09:18:38.110Z,10.83
2018-11-02T09:23:41.248Z,12.00
2018-11-02T09:28:44.369Z,13.83
2018-11-02T09:33:47.461Z,11.90
2018-11-02T09:38:50.634Z,11.33
2018-11-02T09:43:53.897Z,13.47
2018-11-02T09:48:57.018Z,12.80
2018-11-02T09:54:00.222Z,12.53
2018-11-02T09:59:05.010Z,12.60
2018-11-02T10:04:12.369Z,12.47
2018-11-02T10:09:15.970Z,12.77
2018-11-02T10:14:51.487Z,12.63
2018-11-02T10:20:03.825Z,12.10
2018-11-02T10:25:20.694Z,11.10
2018-11-02T10:30:34.741Z,10.80
2018-11-02T10:35:49.943Z,11.17
2018-11-02T10:40:58.853Z,8.07
2018-11-02T10:46:02.780Z,6.23
2018-11-02T10:51:07.527Z,6.17
2018-11-02T10:56:11.234Z,9.80
2018-11-02T11:01:20.541Z,8.40
2018-11-02T11:06:26.407Z,8.97
2018-11-02T11:11:32.231Z,7.60
2018-11-02T11:16:37.181Z,3.40
2018-11-02T11:21:43.907Z,3.40
2018-11-02T11:26:49.050Z,3.53
2018-11-02T11:31:53.113Z,2.80
2018-11-02T11:36:56.732Z,2.30
2018-11-02T11:42:01.381Z,2.67
2018-11-02T11:47:05.118Z,3.03
2018-11-02T11:52:08.700Z,2.63
2018-11-02T11:57:13.844Z,3.30
2018-11-02T12:02:19.477Z,3.93
2018-11-02T12:07:24.795Z,4.00
2018-11-02T12:12:32.097Z,3.97
2018-11-02T12:17:37.038Z,5.00
2018-11-02T12:22:45.505Z,5.00
2018-11-02T12:27:52.212Z,4.50
2018-11-02T12:32:56.832Z,5.20
2018-11-02T12:38:01.882Z,4.57
2018-11-02T12:43:08.555Z,4.60
2018-11-02T12:48:12.731Z,5.50
2018-11-02T12:53:19.280Z,5.10
2018-11-02T12:58:23.550Z,4.93
2018-11-02T13:03:28.157Z,5.17
2018-11-02T13:08:36.715Z,5.10
2018-11-02T13:13:40.195Z,4.23
2018-11-02T13:18:43.320Z,4.33
2018-11-02T13:23:46.528Z,3.73
2018-11-02T13:28:49.702Z,4.10
2018-11-02T13:33:52.922Z,4.27
2018-11-02T13:38:58.666Z,4.60
2018-11-02T13:44:01.918Z,4.73
2018-11-02T13:49:06.860Z,4.23
2018-11-02T13:54:10.176Z,9.17
2018-11-02T13:59:13.567Z,6.03
2018-11-02T14:04:17.097Z,4.47
2018-11-02T14:09:22.413Z,4.63
2018-11-02T14:14:27.796Z,3.90
2018-11-02T14:19:33.424Z,3.43
2018-11-02T14:24:39.312Z,2.40
2018-11-02T14:29:44.985Z,2.70
2018-11-02T14:34:48.958Z,3.00
2018-11-02T14:39:52.892Z,2.93
2018-11-02T14:44:56.062Z,3.60
2018-11-02T14:49:59.202Z,3.43
2018-11-02T14:55:02.374Z,4.00
2018-11-02T15:00:07.927Z,3.70
2018-11-02T15:05:12.471Z,3.43
2018-11-02T15:10:15.617Z,3.87
2018-11-02T15:15:18.744Z,2.77
2018-11-02T15:20:21.901Z,2.23
2018-11-02T15:25:25.057Z,1.93
2018-11-02T15:30:28.180Z,1.90
2018-11-02T15:35:31.317Z,2.27
2018-11-02T15:40:34.445Z,2.00
2018-11-02T15:45:37.555Z,2.00
2018-11-02T15:58:39.850Z,2.20
2018-11-02T16:03:43.013Z,1.87
2018-11-02T16:08:46.138Z,2.00
2018-11-02T16:13:49.254Z,2.00
2018-11-02T16:18:52.409Z,2.30
2018-11-02T16:23:55.537Z,2.07
2018-11-02T16:28:58.673Z,2.37
2018-11-02T16:34:01.873Z,2.50
2018-11-02T16:44:27.970Z,2.80
2018-11-02T16:49:33.855Z,3.03
2018-11-02T16:54:40.363Z,3.27
2018-11-02T16:59:47.073Z,3.00
2018-11-02T17:04:52.284Z,3.07
2018-11-02T17:09:57.102Z,5.23
2018-11-02T17:15:01.200Z,4.23
2018-11-02T17:20:09.663Z,9.40
2018-11-02T17:25:14.240Z,4.30
2018-11-02T17:30:19.342Z,3.57
2018-11-02T17:35:23.465Z,3.30
2018-11-02T17:40:27.387Z,3.60
2018-11-02T17:45:30.589Z,3.10
2018-11-02T17:50:33.723Z,3.33
2018-11-02T17:55:36.859Z,4.13
2018-11-02T18:00:40.341Z,3.67
2018-11-02T18:05:43.527Z,4.67
2018-11-02T18:10:47.027Z,3.47
2018-11-02T18:15:50.457Z,4.03
2018-11-02T18:20:53.867Z,4.67
2018-11-02T18:25:58.115Z,3.90
2018-11-02T18:31:03.317Z,4.43
2018-11-02T18:36:06.575Z,4.70
2018-11-02T18:41:09.720Z,4.50
2018-11-02T18:46:14.771Z,4.80
2018-11-02T18:51:20.320Z,4.93
2018-11-02T18:56:23.950Z,4.60
2018-11-02T19:01:31.388Z,4.70
2018-11-02T19:06:38.848Z,5.63
2018-11-02T19:11:44.534Z,6.30
2018-11-02T19:16:51.706Z,5.27
2018-11-02T19:21:56.231Z,6.90
2018-11-02T19:27:00.459Z,6.70
2018-11-02T19:32:05.063Z,6.43
2018-11-02T19:37:09.480Z,5.40
2018-11-02T19:42:14.048Z,6.17
2018-11-02T19:47:18.138Z,6.27
2018-11-02T19:52:22.124Z,7.17
2018-11-02T19:57:25.657Z,6.60
2018-11-02T20:02:28.787Z,6.93
2018-11-02T20:07:32.155Z,6.47
2018-11-02T20:12:35.309Z,6.60
2018-11-02T20:17:39.074Z,6.53
2018-11-02T20:22:42.493Z,7.50
2018-11-02T20:27:45.694Z,7.80
2018-11-02T20:32:48.810Z,8.80
2018-11-02T20:37:51.957Z,8.77
2018-11-02T20:42:55.090Z,8.70
2018-11-02T20:47:58.228Z,8.90
2018-11-02T20:53:01.369Z,8.80
2018-11-02T20:58:04.997Z,8.40
2018-11-02T21:03:08.147Z,8.73
2018-11-02T21:08:11.452Z,7.40
2018-11-02T21:13:14.469Z,8.10
2018-11-02T21:18:17.584Z,9.10
2018-11-02T21:23:20.709Z,7.57
2018-11-02T21:28:23.819Z,7.80
2018-11-02T21:33:26.929Z,7.73
2018-11-02T21:38:31.741Z,8.50
2018-11-02T21:43:34.954Z,7.67
2018-11-02T21:48:39.395Z,9.30
2018-11-02T21:53:43.974Z,6.90
2018-11-02T21:58:47.094Z,8.23
2018-11-02T22:03:50.206Z,7.57
2018-11-02T22:08:53.382Z,7.60
2018-11-02T22:13:56.525Z,8.40
2018-11-02T22:18:59.660Z,8.37
2018-11-02T22:24:02.781Z,30.43
2018-11-02T22:29:06.048Z,9.97
2018-11-02T22:34:09.097Z,8.57
2018-11-02T22:39:12.224Z,9.63
2018-11-02T22:44:15.349Z,8.27
2018-11-02T22:49:18.456Z,9.13
2018-11-02T22:54:21.573Z,9.07
2018-11-02T22:59:24.769Z,7.83
2018-11-02T23:04:27.884Z,8.37
2018-11-02T23:09:31.017Z,7.67
2018-11-02T23:14:34.262Z,9.70
2018-11-02T23:19:37.503Z,8.80
2018-11-02T23:24:40.502Z,7.97
2018-11-02T23:29:43.632Z,7.83
2018-11-02T23:34:46.733Z,8.47
2018-11-02T23:39:49.880Z,9.00
2018-11-02T23:44:53.052Z,10.10
2018-11-02T23:49:56.135Z,10.70
2018-11-02T23:54:59.254Z,9.10
